sensor_id;sensor_type;location;lat;lon;timestamp;pressure;altitude;pressure_sealevel;temperature;humidity
11878;BME280;5998;42.676;23.268;2023-03-04T00:00:52;94852.22;;;7.04;100.00
11878;BME280;5998;42.676;23.268;2023-03-04T00:03:19;94851.44;;;7.03;100.00
11878;BME280;5998;42.676;23.268;2023-03-04T00:05:45;94828.78;;;6.84;100.00
11878;BME280;5998;42.676;23.268;2023-03-04T00:08:12;94854.44;;;6.93;100.00
11878;BME280;5998;42.676;23.268;2023-03-04T00:10:39;94848.44;;;6.88;100.00
11878;BME280;5998;42.676;23.268;2023-03-04T00:13:07;94851.94;;;6.88;100.00
11878;BME280;5998;42.676;23.268;2023-03-04T00:15:34;94838.53;;;6.71;100.00
11878;BME280;5998;42.676;23.268;2023-03-04T00:18:00;94850.03;;;6.72;100.00
11878;BME280;5998;42.676;23.268;2023-03-04T00:20:27;94845.94;;;6.66;100.00
11878;BME280;5998;42.676;23.268;2023-03-04T00:22:54;94841.34;;;6.58;100.00
11878;BME280;5998;42.676;23.268;2023-03-04T00:25:20;94838.84;;;6.61;100.00
11878;BME280;5998;42.676;23.268;2023-03-04T00:27:47;94844.00;;;6.40;100.00
11878;BME280;5998;42.676;23.268;2023-03-04T00:30:16;94839.59;;;6.36;100.00
11878;BME280;5998;42.676;23.268;2023-03-04T00:32:42;94841.94;;;6.20;100.00
11878;BME280;5998;42.676;23.268;2023-03-04T00:35:09;94833.59;;;6.22;100.00
11878;BME280;5998;42.676;23.268;2023-03-04T00:37:36;94841.94;;;6.37;100.00
11878;BME280;5998;42.676;23.268;2023-03-04T00:40:03;94838.38;;;6.50;100.00
11878;BME280;5998;42.676;23.268;2023-03-04T00:42:30;94834.91;;;6.50;100.00
11878;BME280;5998;42.676;23.268;2023-03-04T00:44:57;94843.41;;;6.61;100.00
11878;BME280;5998;42.676;23.268;2023-03-04T00:47:25;94840.91;;;6.64;100.00
11878;BME280;5998;42.676;23.268;2023-03-04T00:49:52;94837.13;;;6.74;100.00
11878;BME280;5998;42.676;23.268;2023-03-04T00:52:18;94814.44;;;6.71;100.00
11878;BME280;5998;42.676;23.268;2023-03-04T00:54:45;94835.06;;;6.88;100.00
11878;BME280;5998;42.676;23.268;2023-03-04T00:57:12;94834.13;;;6.92;100.00
11878;BME280;5998;42.676;23.268;2023-03-04T00:59:38;94831.75;;;6.91;100.00
11878;BME280;5998;42.676;23.268;2023-03-04T01:02:08;94831.31;;;6.89;100.00
11878;BME280;5998;42.676;23.268;2023-03-04T01:04:36;94822.47;;;6.80;100.00
11878;BME280;5998;42.676;23.268;2023-03-04T01:07:03;94825.16;;;6.63;100.00
11878;BME280;5998;42.676;23.268;2023-03-04T01:09:30;94827.50;;;6.47;100.00
11878;BME280;5998;42.676;23.268;2023-03-04T01:11:57;94828.59;;;6.46;100.00
11878;BME280;5998;42.676;23.268;2023-03-04T01:14:24;94830.94;;;6.39;100.00
11878;BME280;5998;42.676;23.268;2023-03-04T01:16:51;94832.69;;;6.52;100.00
11878;BME280;5998;42.676;23.268;2023-03-04T01:19:18;94824.50;;;6.57;100.00
11878;BME280;5998;42.676;23.268;2023-03-04T01:21:47;94825.47;;;6.70;100.00
11878;BME280;5998;42.676;23.268;2023-03-04T01:24:13;94831.47;;;6.75;100.00
11878;BME280;5998;42.676;23.268;2023-03-04T01:26:40;94821.06;;;6.82;100.00
11878;BME280;5998;42.676;23.268;2023-03-04T01:29:07;94819.47;;;6.90;100.00
11878;BME280;5998;42.676;23.268;2023-03-04T01:31:33;94819.97;;;6.92;100.00
11878;BME280;5998;42.676;23.268;2023-03-04T01:34:00;94817.75;;;6.94;100.00
11878;BME280;5998;42.676;23.268;2023-03-04T01:36:27;94806.88;;;6.82;100.00
11878;BME280;5998;42.676;23.268;2023-03-04T01:38:55;94806.41;;;6.88;100.00
11878;BME280;5998;42.676;23.268;2023-03-04T01:41:24;94795.25;;;6.78;100.00
11878;BME280;5998;42.676;23.268;2023-03-04T01:43:53;94799.34;;;6.75;100.00
11878;BME280;5998;42.676;23.268;2023-03-04T01:46:20;94795.38;;;6.81;100.00
11878;BME280;5998;42.676;23.268;2023-03-04T01:48:47;94793.50;;;6.73;100.00
11878;BME280;5998;42.676;23.268;2023-03-04T01:51:15;94790.53;;;6.75;100.00
11878;BME280;5998;42.676;23.268;2023-03-04T01:53:43;94782.34;;;6.71;100.00
11878;BME280;5998;42.676;23.268;2023-03-04T01:56:15;94784.22;;;6.79;100.00
11878;BME280;5998;42.676;23.268;2023-03-04T01:58:42;94780.59;;;6.41;100.00
11878;BME280;5998;42.676;23.268;2023-03-04T02:01:09;94782.34;;;6.45;100.00
11878;BME280;5998;42.676;23.268;2023-03-04T02:03:36;94789.25;;;6.46;100.00
11878;BME280;5998;42.676;23.268;2023-03-04T02:06:04;94768.97;;;6.37;100.00
11878;BME280;5998;42.676;23.268;2023-03-04T02:08:31;94787.53;;;6.50;100.00
11878;BME280;5998;42.676;23.268;2023-03-04T02:10:58;94763.94;;;6.44;100.00
11878;BME280;5998;42.676;23.268;2023-03-04T02:13:26;94787.06;;;6.66;100.00
11878;BME280;5998;42.676;23.268;2023-03-04T02:15:52;94780.91;;;6.65;100.00
11878;BME280;5998;42.676;23.268;2023-03-04T02:18:21;94788.94;;;6.74;100.00
11878;BME280;5998;42.676;23.268;2023-03-04T02:20:55;94768.81;;;6.68;100.00
11878;BME280;5998;42.676;23.268;2023-03-04T02:23:32;94780.13;;;6.82;100.00
11878;BME280;5998;42.676;23.268;2023-03-04T02:26:12;94779.50;;;6.85;100.00
11878;BME280;5998;42.676;23.268;2023-03-04T02:28:39;94775.41;;;6.87;100.00
11878;BME280;5998;42.676;23.268;2023-03-04T02:31:07;94768.78;;;7.02;100.00
11878;BME280;5998;42.676;23.268;2023-03-04T02:33:34;94770.84;;;6.96;100.00
11878;BME280;5998;42.676;23.268;2023-03-04T02:36:01;94780.75;;;6.96;100.00
11878;BME280;5998;42.676;23.268;2023-03-04T02:38:28;94759.50;;;6.91;100.00
11878;BME280;5998;42.676;23.268;2023-03-04T02:40:54;94774.59;;;6.95;100.00
11878;BME280;5998;42.676;23.268;2023-03-04T02:43:24;94757.78;;;6.95;100.00
11878;BME280;5998;42.676;23.268;2023-03-04T02:45:51;94753.81;;;6.92;100.00
11878;BME280;5998;42.676;23.268;2023-03-04T02:48:20;94760.91;;;6.97;100.00
11878;BME280;5998;42.676;23.268;2023-03-04T02:50:50;94752.41;;;6.95;100.00
11878;BME280;5998;42.676;23.268;2023-03-04T02:53:17;94757.28;;;6.84;100.00
11878;BME280;5998;42.676;23.268;2023-03-04T02:55:45;94750.56;;;6.61;100.00
11878;BME280;5998;42.676;23.268;2023-03-04T02:58:12;94759.50;;;6.65;100.00
11878;BME280;5998;42.676;23.268;2023-03-04T03:00:40;94761.56;;;6.68;100.00
11878;BME280;5998;42.676;23.268;2023-03-04T03:03:07;94746.81;;;6.53;100.00
11878;BME280;5998;42.676;23.268;2023-03-04T03:05:35;94757.97;;;6.64;100.00
11878;BME280;5998;42.676;23.268;2023-03-04T03:08:03;94758.13;;;6.59;100.00
11878;BME280;5998;42.676;23.268;2023-03-04T03:10:29;94765.97;;;6.56;100.00
11878;BME280;5998;42.676;23.268;2023-03-04T03:12:56;94762.53;;;6.55;100.00
11878;BME280;5998;42.676;23.268;2023-03-04T03:15:23;94750.25;;;6.45;100.00
11878;BME280;5998;42.676;23.268;2023-03-04T03:17:51;94764.25;;;6.60;100.00
11878;BME280;5998;42.676;23.268;2023-03-04T03:20:18;94763.78;;;6.58;100.00
11878;BME280;5998;42.676;23.268;2023-03-04T03:22:45;94759.50;;;6.57;100.00
11878;BME280;5998;42.676;23.268;2023-03-04T03:25:13;94743.16;;;6.41;100.00
11878;BME280;5998;42.676;23.268;2023-03-04T03:27:40;94761.88;;;6.49;100.00
11878;BME280;5998;42.676;23.268;2023-03-04T03:30:09;94763.63;;;6.45;100.00
11878;BME280;5998;42.676;23.268;2023-03-04T03:32:36;94754.50;;;6.38;100.00
11878;BME280;5998;42.676;23.268;2023-03-04T03:35:04;94741.44;;;6.28;100.00
11878;BME280;5998;42.676;23.268;2023-03-04T03:37:31;94757.16;;;6.38;100.00
11878;BME280;5998;42.676;23.268;2023-03-04T03:39:58;94757.94;;;6.38;100.00
11878;BME280;5998;42.676;23.268;2023-03-04T03:42:25;94758.09;;;6.25;100.00
11878;BME280;5998;42.676;23.268;2023-03-04T03:44:52;94757.28;;;6.16;100.00
11878;BME280;5998;42.676;23.268;2023-03-04T03:47:20;94753.38;;;6.13;100.00
11878;BME280;5998;42.676;23.268;2023-03-04T03:49:46;94752.28;;;6.14;100.00
11878;BME280;5998;42.676;23.268;2023-03-04T03:52:14;94751.81;;;6.12;100.00
11878;BME280;5998;42.676;23.268;2023-03-04T03:54:41;94750.56;;;6.10;100.00
11878;BME280;5998;42.676;23.268;2023-03-04T03:57:08;94742.81;;;6.08;100.00
11878;BME280;5998;42.676;23.268;2023-03-04T03:59:35;94753.84;;;6.07;100.00
11878;BME280;5998;42.676;23.268;2023-03-04T04:02:02;94749.41;;;6.02;100.00
11878;BME280;5998;42.676;23.268;2023-03-04T04:04:28;94746.44;;;5.95;100.00
11878;BME280;5998;42.676;23.268;2023-03-04T04:06:55;94735.41;;;5.97;100.00
11878;BME280;5998;42.676;23.268;2023-03-04T04:09:23;94740.28;;;5.94;100.00
11878;BME280;5998;42.676;23.268;2023-03-04T04:11:50;94737.72;;;5.81;100.00
11878;BME280;5998;42.676;23.268;2023-03-04T04:14:16;94735.78;;;5.64;100.00
11878;BME280;5998;42.676;23.268;2023-03-04T04:16:43;94740.94;;;5.61;100.00
11878;BME280;5998;42.676;23.268;2023-03-04T04:19:15;94743.22;;;5.76;100.00
11878;BME280;5998;42.676;23.268;2023-03-04T04:21:42;94734.69;;;5.57;100.00
11878;BME280;5998;42.676;23.268;2023-03-04T04:24:09;94741.56;;;5.58;100.00
11878;BME280;5998;42.676;23.268;2023-03-04T04:26:37;94743.78;;;5.56;100.00
11878;BME280;5998;42.676;23.268;2023-03-04T04:29:03;94744.09;;;5.54;100.00
11878;BME280;5998;42.676;23.268;2023-03-04T04:31:30;94736.88;;;5.55;100.00
11878;BME280;5998;42.676;23.268;2023-03-04T04:33:57;94740.94;;;5.61;100.00
11878;BME280;5998;42.676;23.268;2023-03-04T04:36:23;94742.88;;;5.60;100.00
11878;BME280;5998;42.676;23.268;2023-03-04T04:38:50;94742.06;;;5.60;100.00
11878;BME280;5998;42.676;23.268;2023-03-04T04:41:19;94736.22;;;5.58;100.00
11878;BME280;5998;42.676;23.268;2023-03-04T04:43:47;94740.94;;;5.61;100.00
11878;BME280;5998;42.676;23.268;2023-03-04T04:46:15;94725.41;;;5.54;100.00
11878;BME280;5998;42.676;23.268;2023-03-04T04:48:42;94738.59;;;5.59;100.00
11878;BME280;5998;42.676;23.268;2023-03-04T04:51:09;94731.34;;;5.51;100.00
11878;BME280;5998;42.676;23.268;2023-03-04T04:53:36;94737.50;;;5.52;100.00
11878;BME280;5998;42.676;23.268;2023-03-04T04:56:08;94706.31;;;5.30;100.00
11878;BME280;5998;42.676;23.268;2023-03-04T04:58:35;94745.63;;;5.47;100.00
11878;BME280;5998;42.676;23.268;2023-03-04T05:01:04;94735.88;;;5.42;100.00
11878;BME280;5998;42.676;23.268;2023-03-04T05:03:31;94747.19;;;5.48;100.00
11878;BME280;5998;42.676;23.268;2023-03-04T05:05:58;94755.34;;;5.43;100.00
11878;BME280;5998;42.676;23.268;2023-03-04T05:08:25;94758.44;;;5.36;100.00
11878;BME280;5998;42.676;23.268;2023-03-04T05:10:52;94756.75;;;5.40;100.00
11878;BME280;5998;42.676;23.268;2023-03-04T05:13:19;94765.72;;;5.44;100.00
11878;BME280;5998;42.676;23.268;2023-03-04T05:15:46;94761.78;;;5.42;100.00
11878;BME280;5998;42.676;23.268;2023-03-04T05:18:14;94763.38;;;5.43;100.00
11878;BME280;5998;42.676;23.268;2023-03-04T05:20:41;94762.09;;;5.40;100.00
11878;BME280;5998;42.676;23.268;2023-03-04T05:23:07;94750.25;;;5.24;100.00
11878;BME280;5998;42.676;23.268;2023-03-04T05:25:34;94765.38;;;5.37;100.00
11878;BME280;5998;42.676;23.268;2023-03-04T05:28:01;94771.03;;;5.35;100.00
11878;BME280;5998;42.676;23.268;2023-03-04T05:30:29;94780.31;;;5.38;100.00
11878;BME280;5998;42.676;23.268;2023-03-04T05:32:55;94779.19;;;5.39;100.00
11878;BME280;5998;42.676;23.268;2023-03-04T05:35:24;94776.91;;;5.46;100.00
11878;BME280;5998;42.676;23.268;2023-03-04T05:37:50;94775.50;;;5.49;100.00
11878;BME280;5998;42.676;23.268;2023-03-04T05:40:17;94766.72;;;5.57;100.00
11878;BME280;5998;42.676;23.268;2023-03-04T05:42:44;94774.91;;;5.60;100.00
11878;BME280;5998;42.676;23.268;2023-03-04T05:45:10;94779.66;;;5.72;100.00
11878;BME280;5998;42.676;23.268;2023-03-04T05:47:37;94782.03;;;5.73;100.00
11878;BME280;5998;42.676;23.268;2023-03-04T05:50:04;94776.06;;;5.76;100.00
11878;BME280;5998;42.676;23.268;2023-03-04T05:52:33;94788.06;;;5.87;100.00
11878;BME280;5998;42.676;23.268;2023-03-04T05:54:59;94784.59;;;5.87;100.00
11878;BME280;5998;42.676;23.268;2023-03-04T05:57:26;94780.19;;;5.91;100.00
11878;BME280;5998;42.676;23.268;2023-03-04T05:59:53;94787.47;;;5.90;100.00
11878;BME280;5998;42.676;23.268;2023-03-04T06:02:19;94785.41;;;5.96;100.00
11878;BME280;5998;42.676;23.268;2023-03-04T06:04:46;94799.91;;;6.04;100.00
11878;BME280;5998;42.676;23.268;2023-03-04T06:07:13;94797.88;;;6.09;100.00
11878;BME280;5998;42.676;23.268;2023-03-04T06:09:41;94806.22;;;6.16;100.00
11878;BME280;5998;42.676;23.268;2023-03-04T06:12:09;94805.75;;;6.23;100.00
11878;BME280;5998;42.676;23.268;2023-03-04T06:14:36;94793.94;;;6.24;100.00
11878;BME280;5998;42.676;23.268;2023-03-04T06:17:03;94799.94;;;6.38;100.00
11878;BME280;5998;42.676;23.268;2023-03-04T06:19:30;94795.72;;;6.45;100.00
11878;BME280;5998;42.676;23.268;2023-03-04T06:21:56;94803.75;;;6.45;100.00
11878;BME280;5998;42.676;23.268;2023-03-04T06:24:23;94805.00;;;6.57;100.00
11878;BME280;5998;42.676;23.268;2023-03-04T06:26:51;94798.56;;;6.66;100.00
11878;BME280;5998;42.676;23.268;2023-03-04T06:29:18;94805.16;;;6.77;100.00
11878;BME280;5998;42.676;23.268;2023-03-04T06:31:45;94806.25;;;6.85;100.00
11878;BME280;5998;42.676;23.268;2023-03-04T06:34:11;94803.13;;;7.00;100.00
11878;BME280;5998;42.676;23.268;2023-03-04T06:36:38;94810.19;;;7.04;100.00
11878;BME280;5998;42.676;23.268;2023-03-04T06:39:06;94795.09;;;6.83;100.00
11878;BME280;5998;42.676;23.268;2023-03-04T06:41:33;94796.19;;;6.99;100.00
11878;BME280;5998;42.676;23.268;2023-03-04T06:44:02;94810.63;;;7.24;100.00
11878;BME280;5998;42.676;23.268;2023-03-04T06:46:29;94819.00;;;7.22;100.00
11878;BME280;5998;42.676;23.268;2023-03-04T06:48:56;94815.81;;;7.29;100.00
11878;BME280;5998;42.676;23.268;2023-03-04T06:51:22;94812.31;;;7.37;100.00
11878;BME280;5998;42.676;23.268;2023-03-04T06:53:49;94804.63;;;7.35;100.00
11878;BME280;5998;42.676;23.268;2023-03-04T06:56:16;94807.28;;;7.44;100.00
11878;BME280;5998;42.676;23.268;2023-03-04T06:58:43;94809.34;;;7.38;100.00
11878;BME280;5998;42.676;23.268;2023-03-04T07:01:13;94813.25;;;7.49;100.00
11878;BME280;5998;42.676;23.268;2023-03-04T07:03:41;94816.66;;;7.58;100.00
11878;BME280;5998;42.676;23.268;2023-03-04T07:06:09;94783.22;;;7.18;100.00
11878;BME280;5998;42.676;23.268;2023-03-04T07:08:36;94816.25;;;7.39;100.00
11878;BME280;5998;42.676;23.268;2023-03-04T07:11:03;94819.06;;;7.51;100.00
11878;BME280;5998;42.676;23.268;2023-03-04T07:13:30;94824.19;;;7.19;100.00
11878;BME280;5998;42.676;23.268;2023-03-04T07:15:58;94821.50;;;7.19;100.00
11878;BME280;5998;42.676;23.268;2023-03-04T07:18:26;94819.00;;;7.22;100.00
11878;BME280;5998;42.676;23.268;2023-03-04T07:20:53;94821.81;;;7.26;100.00
11878;BME280;5998;42.676;23.268;2023-03-04T07:23:20;94818.59;;;7.49;100.00
11878;BME280;5998;42.676;23.268;2023-03-04T07:25:48;94827.25;;;7.63;100.00
11878;BME280;5998;42.676;23.268;2023-03-04T07:28:15;94830.03;;;7.67;100.00
11878;BME280;5998;42.676;23.268;2023-03-04T07:30:42;94822.41;;;7.40;100.00
11878;BME280;5998;42.676;23.268;2023-03-04T07:33:08;94821.94;;;7.38;100.00
11878;BME280;5998;42.676;23.268;2023-03-04T07:35:37;94825.91;;;7.23;100.00
11878;BME280;5998;42.676;23.268;2023-03-04T07:38:03;94820.25;;;7.25;100.00
11878;BME280;5998;42.676;23.268;2023-03-04T07:40:30;94817.47;;;7.50;100.00
11878;BME280;5998;42.676;23.268;2023-03-04T07:42:57;94820.78;;;7.56;100.00
11878;BME280;5998;42.676;23.268;2023-03-04T07:45:24;94826.00;;;7.52;100.00
11878;BME280;5998;42.676;23.268;2023-03-04T07:47:51;94820.56;;;7.78;100.00
11878;BME280;5998;42.676;23.268;2023-03-04T07:50:18;94813.97;;;7.67;100.00
11878;BME280;5998;42.676;23.268;2023-03-04T07:52:47;94809.56;;;8.00;100.00
11878;BME280;5998;42.676;23.268;2023-03-04T07:55:16;94815.50;;;8.14;100.00
11878;BME280;5998;42.676;23.268;2023-03-04T07:57:44;94791.78;;;7.96;100.00
11878;BME280;5998;42.676;23.268;2023-03-04T08:00:14;94787.22;;;7.96;100.00
11878;BME280;5998;42.676;23.268;2023-03-04T08:02:42;94799.75;;;8.13;100.00
11878;BME280;5998;42.676;23.268;2023-03-04T08:05:09;94805.28;;;7.70;100.00
11878;BME280;5998;42.676;23.268;2023-03-04T08:07:36;94761.94;;;7.30;100.00
11878;BME280;5998;42.676;23.268;2023-03-04T08:10:05;94807.81;;;7.66;100.00
11878;BME280;5998;42.676;23.268;2023-03-04T08:12:32;94803.81;;;7.35;100.00
11878;BME280;5998;42.676;23.268;2023-03-04T08:14:59;94813.06;;;7.63;100.00
11878;BME280;5998;42.676;23.268;2023-03-04T08:17:25;94803.28;;;7.58;100.00
11878;BME280;5998;42.676;23.268;2023-03-04T08:19:54;94804.78;;;7.39;100.00
11878;BME280;5998;42.676;23.268;2023-03-04T08:22:20;94806.78;;;7.50;100.00
11878;BME280;5998;42.676;23.268;2023-03-04T08:24:47;94807.13;;;7.32;100.00
11878;BME280;5998;42.676;23.268;2023-03-04T08:27:15;94791.59;;;7.17;100.00
11878;BME280;5998;42.676;23.268;2023-03-04T08:29:42;94804.00;;;7.30;100.00
11878;BME280;5998;42.676;23.268;2023-03-04T08:32:09;94801.66;;;7.20;100.00
11878;BME280;5998;42.676;23.268;2023-03-04T08:34:38;94803.50;;;7.36;100.00
11878;BME280;5998;42.676;23.268;2023-03-04T08:37:04;94799.72;;;7.37;100.00
11878;BME280;5998;42.676;23.268;2023-03-04T08:39:31;94787.50;;;7.65;100.00
11878;BME280;5998;42.676;23.268;2023-03-04T08:42:00;94780.91;;;7.54;100.00
11878;BME280;5998;42.676;23.268;2023-03-04T08:44:28;94760.13;;;7.05;100.00
11878;BME280;5998;42.676;23.268;2023-03-04T08:46:55;94770.81;;;7.13;100.00
11878;BME280;5998;42.676;23.268;2023-03-04T08:49:22;94800.50;;;7.38;100.00
11878;BME280;5998;42.676;23.268;2023-03-04T08:51:48;94784.72;;;7.45;100.00
11878;BME280;5998;42.676;23.268;2023-03-04T08:54:15;94797.47;;;7.48;100.00
11878;BME280;5998;42.676;23.268;2023-03-04T08:56:42;94790.88;;;7.45;100.00
11878;BME280;5998;42.676;23.268;2023-03-04T08:59:08;94792.34;;;7.72;100.00
11878;BME280;5998;42.676;23.268;2023-03-04T09:01:36;94794.50;;;7.87;100.00
11878;BME280;5998;42.676;23.268;2023-03-04T09:04:03;94786.47;;;7.87;100.00
11878;BME280;5998;42.676;23.268;2023-03-04T09:06:30;94780.16;;;7.83;100.00
11878;BME280;5998;42.676;23.268;2023-03-04T09:08:57;94783.50;;;8.09;100.00
11878;BME280;5998;42.676;23.268;2023-03-04T09:11:24;94780.16;;;8.42;100.00
11878;BME280;5998;42.676;23.268;2023-03-04T09:13:50;94768.31;;;8.63;100.00
11878;BME280;5998;42.676;23.268;2023-03-04T09:16:17;94771.91;;;8.88;100.00
11878;BME280;5998;42.676;23.268;2023-03-04T09:18:45;94757.38;;;9.22;100.00
11878;BME280;5998;42.676;23.268;2023-03-04T09:21:12;94752.59;;;9.39;100.00
11878;BME280;5998;42.676;23.268;2023-03-04T09:23:39;94752.31;;;9.53;100.00
11878;BME280;5998;42.676;23.268;2023-03-04T09:26:13;94755.91;;;9.69;100.00
11878;BME280;5998;42.676;23.268;2023-03-04T09:28:40;94751.66;;;9.80;100.00
11878;BME280;5998;42.676;23.268;2023-03-04T09:31:10;94752.31;;;9.89;100.00
11878;BME280;5998;42.676;23.268;2023-03-04T09:33:37;94755.91;;;10.18;100.00
11878;BME280;5998;42.676;23.268;2023-03-04T09:36:08;94744.94;;;10.23;100.00
11878;BME280;5998;42.676;23.268;2023-03-04T09:38:35;94745.59;;;10.20;100.00
11878;BME280;5998;42.676;23.268;2023-03-04T09:41:06;94739.84;;;10.45;100.00
11878;BME280;5998;42.676;23.268;2023-03-04T09:43:34;94750.91;;;10.56;100.00
11878;BME280;5998;42.676;23.268;2023-03-04T09:46:05;94745.03;;;10.78;100.00
11878;BME280;5998;42.676;23.268;2023-03-04T09:48:39;94741.66;;;10.81;100.00
11878;BME280;5998;42.676;23.268;2023-03-04T09:51:18;94740.69;;;10.61;100.00
11878;BME280;5998;42.676;23.268;2023-03-04T09:53:51;94742.53;;;10.85;100.00
11878;BME280;5998;42.676;23.268;2023-03-04T09:56:24;94740.16;;;10.56;100.00
11878;BME280;5998;42.676;23.268;2023-03-04T09:58:58;94740.84;;;10.81;100.00
11878;BME280;5998;42.676;23.268;2023-03-04T10:01:33;94734.66;;;10.92;100.00
11878;BME280;5998;42.676;23.268;2023-03-04T10:04:05;94727.22;;;11.01;100.00
11878;BME280;5998;42.676;23.268;2023-03-04T10:06:39;94729.94;;;10.89;100.00
11878;BME280;5998;42.676;23.268;2023-03-04T10:09:12;94728.06;;;11.05;100.00
11878;BME280;5998;42.676;23.268;2023-03-04T10:11:43;94726.50;;;11.04;100.00
11878;BME280;5998;42.676;23.268;2023-03-04T10:14:19;94720.88;;;10.82;100.00
11878;BME280;5998;42.676;23.268;2023-03-04T10:16:51;94721.56;;;10.79;100.00
11878;BME280;5998;42.676;23.268;2023-03-04T10:19:31;94718.03;;;9.98;100.00
11878;BME280;5998;42.676;23.268;2023-03-04T10:22:01;94715.31;;;9.86;100.00
11878;BME280;5998;42.676;23.268;2023-03-04T10:24:38;94712.63;;;9.86;100.00
11878;BME280;5998;42.676;23.268;2023-03-04T10:27:09;94708.41;;;10.49;100.00
11878;BME280;5998;42.676;23.268;2023-03-04T10:29:39;94703.88;;;10.26;100.00
11878;BME280;5998;42.676;23.268;2023-03-04T10:32:08;94702.56;;;10.07;100.00
11878;BME280;5998;42.676;23.268;2023-03-04T10:34:37;94698.50;;;10.14;100.00
11878;BME280;5998;42.676;23.268;2023-03-04T10:37:06;94686.31;;;9.92;100.00
11878;BME280;5998;42.676;23.268;2023-03-04T10:39:35;94680.72;;;9.97;100.00
11878;BME280;5998;42.676;23.268;2023-03-04T10:42:05;94688.94;;;10.40;100.00
11878;BME280;5998;42.676;23.268;2023-03-04T10:44:33;94683.16;;;10.02;100.00
11878;BME280;5998;42.676;23.268;2023-03-04T10:47:08;94682.25;;;10.22;100.00
11878;BME280;5998;42.676;23.268;2023-03-04T10:49:49;94675.41;;;10.00;100.00
11878;BME280;5998;42.676;23.268;2023-03-04T10:52:27;94664.69;;;10.13;100.00
11878;BME280;5998;42.676;23.268;2023-03-04T10:54:56;94675.41;;;10.00;100.00
11878;BME280;5998;42.676;23.268;2023-03-04T10:57:28;94669.19;;;9.72;100.00
11878;BME280;5998;42.676;23.268;2023-03-04T10:59:58;94665.69;;;9.84;100.00
11878;BME280;5998;42.676;23.268;2023-03-04T11:02:27;94662.22;;;9.95;100.00
11878;BME280;5998;42.676;23.268;2023-03-04T11:05:04;94657.97;;;9.82;100.00
11878;BME280;5998;42.676;23.268;2023-03-04T11:07:38;94649.56;;;9.84;100.00
11878;BME280;5998;42.676;23.268;2023-03-04T11:10:13;94649.44;;;9.92;100.00
11878;BME280;5998;42.676;23.268;2023-03-04T11:12:41;94647.75;;;10.00;100.00
11878;BME280;5998;42.676;23.268;2023-03-04T11:15:17;94638.56;;;10.13;100.00
11878;BME280;5998;42.676;23.268;2023-03-04T11:17:47;94636.09;;;9.96;100.00
11878;BME280;5998;42.676;23.268;2023-03-04T11:20:20;94629.16;;;9.95;100.00
11878;BME280;5998;42.676;23.268;2023-03-04T11:22:53;94636.28;;;10.27;100.00
11878;BME280;5998;42.676;23.268;2023-03-04T11:25:25;94629.38;;;10.02;100.00
11878;BME280;5998;42.676;23.268;2023-03-04T11:27:54;94617.22;;;9.80;100.00
11878;BME280;5998;42.676;23.268;2023-03-04T11:30:31;94618.50;;;9.86;100.00
11878;BME280;5998;42.676;23.268;2023-03-04T11:33:15;94615.66;;;10.19;100.00
11878;BME280;5998;42.676;23.268;2023-03-04T11:35:49;94611.84;;;10.48;100.00
11878;BME280;5998;42.676;23.268;2023-03-04T11:38:23;94613.38;;;10.61;100.00
11878;BME280;5998;42.676;23.268;2023-03-04T11:40:54;94600.66;;;11.05;100.00
11878;BME280;5998;42.676;23.268;2023-03-04T11:43:25;94604.97;;;10.62;100.00
11878;BME280;5998;42.676;23.268;2023-03-04T11:46:27;94570.53;;;10.40;100.00
11878;BME280;5998;42.676;23.268;2023-03-04T11:49:07;94601.34;;;10.43;100.00
11878;BME280;5998;42.676;23.268;2023-03-04T11:51:46;94593.97;;;10.55;100.00
11878;BME280;5998;42.676;23.268;2023-03-04T11:54:24;94589.34;;;10.68;100.00
11878;BME280;5998;42.676;23.268;2023-03-04T11:56:57;94583.00;;;10.76;100.00
11878;BME280;5998;42.676;23.268;2023-03-04T11:59:45;94577.97;;;10.90;100.00
11878;BME280;5998;42.676;23.268;2023-03-04T12:02:17;94575.63;;;11.04;100.00
11878;BME280;5998;42.676;23.268;2023-03-04T12:05:12;94582.31;;;11.10;100.00
11878;BME280;5998;42.676;23.268;2023-03-04T12:07:53;94572.75;;;11.13;100.00
11878;BME280;5998;42.676;23.268;2023-03-04T12:10:28;94565.19;;;11.03;100.00
11878;BME280;5998;42.676;23.268;2023-03-04T12:13:26;94577.19;;;10.90;100.00
11878;BME280;5998;42.676;23.268;2023-03-04T12:16:08;94575.19;;;10.87;100.00
11878;BME280;5998;42.676;23.268;2023-03-04T12:18:47;94561.88;;;10.94;100.00
11878;BME280;5998;42.676;23.268;2023-03-04T12:21:31;94566.78;;;11.04;100.00
11878;BME280;5998;42.676;23.268;2023-03-04T12:24:29;94561.38;;;11.19;100.00
11878;BME280;5998;42.676;23.268;2023-03-04T12:27:06;94555.81;;;11.28;100.00
11878;BME280;5998;42.676;23.268;2023-03-04T12:29:42;94551.53;;;11.27;100.00
11878;BME280;5998;42.676;23.268;2023-03-04T12:32:16;94553.09;;;11.28;100.00
11878;BME280;5998;42.676;23.268;2023-03-04T12:37:55;94546.00;;;11.20;100.00
11878;BME280;5998;42.676;23.268;2023-03-04T12:40:31;94547.09;;;11.19;100.00
11878;BME280;5998;42.676;23.268;2023-03-04T12:43:19;94543.66;;;11.03;100.00
11878;BME280;5998;42.676;23.268;2023-03-04T12:45:59;94540.78;;;10.80;100.00
11878;BME280;5998;42.676;23.268;2023-03-04T12:48:29;94541.28;;;10.70;100.00
11878;BME280;5998;42.676;23.268;2023-03-04T12:51:11;94530.59;;;10.58;100.00
11878;BME280;5998;42.676;23.268;2023-03-04T12:53:48;94535.53;;;10.72;100.00
11878;BME280;5998;42.676;23.268;2023-03-04T12:56:24;94513.66;;;10.89;100.00
11878;BME280;5998;42.676;23.268;2023-03-04T12:58:53;94529.75;;;11.01;100.00
11878;BME280;5998;42.676;23.268;2023-03-04T13:01:23;94522.44;;;11.01;100.00
11878;BME280;5998;42.676;23.268;2023-03-04T13:03:57;94521.72;;;11.04;100.00
11878;BME280;5998;42.676;23.268;2023-03-04T13:06:30;94518.59;;;11.18;100.00
11878;BME280;5998;42.676;23.268;2023-03-04T13:09:05;94512.25;;;11.10;100.00
11878;BME280;5998;42.676;23.268;2023-03-04T13:11:49;94504.00;;;11.19;100.00